Relevés horaires Bierset (Belgique)


Relevés horaires à Bierset - Mercredi 24 Juin 2020
Heure UTC1 Température [°C] Vent [km/h] Hum. [%] Pres.4 [hPa] Visi. [Km] Nébu. [octa] Préc.5 [mm] Cond.
2m. Res. Ros. Dir.2 Vit. Moy. Raf.3
23:00 22.2 22.2 9.0 ESE 5.6 5.6 7.4 43 1019.8(0.4/3h) 30 1/8 -- --
22:00 22.4 22.4 10.7 E 3.7 7.4 16.7 47 1019.8(0.6/3h) 30 1/8 -- --
21:00 22.8 22.8 10.6 NE 7.4 13.0 22.2 46 1019.6(0.5/3h) 30 1/8 -- --
20:00 24.8 24.8 11.1 NE 9.3 13.0 22.2 42 1019.2(-0.1/3h) 30 2/8 -- --
19:00 26.5 26.5 11.5 ENE 11.1 11.1 16.7 39 1018.9(-0.5/3h) 30 2/8 -- --
18:00 27.1 27.1 10.7 NE 11.1 14.8 22.2 36 1018.8(-0.9/3h) 30 2/8 0/12h
--
17:00 28.6 28.6 10.6 NE 11.1 13.0 18.5 33 1018.8(-1.0/3h) 30 2/8 -- --
16:00 28.8 28.8 10.0 NE 13.0 14.8 22.2 31 1019.2(-0.8/3h) 30 2/8 -- --
15:00 29.2 29.2 10.6 NE 13.0 14.8 20.4 32 1019.6(-0.8/3h) 30 2/8 -- --
14:00 29.4 29.4 11.6 NE 13.0 13.0 20.4 33 1019.7(-1.1/3h) 30 2/8 -- --
13:00 28.8 28.8 11.1 NE 13.0 13.0 20.4 33 1020(-1.4/3h) 30 2/8 -- --
12:00 28.5 28.5 12.2 NNE 9.3 11.1 18.5 37 1020.4(-1.2/3h) 30 3/8 0/6h
--
11:00 27.3 27.3 12.8 NNE 9.3 9.3 14.8 41 1021(-1.2/3h) 30 3/8 -- --
10:00 26.4 26.4 12.9 NE 7.4 9.3 14.8 43 1021.6(-0.9/3h) 30 3/8 -- --
09:00 24.8 24.8 11.8 NE 7.4 7.4 14.8 44 1021.9(-0.4/3h) 30 3/8 -- --
08:00 24.0 24.0 10.2 ESE 3.7 3.7 14.8 42 1022.5(0.0/3h) 30 1/8 -- --
07:00 22.3 22.3 10.8 NNO 3.7 3.7 14.8 48 1022.8(0.4/3h) 30 1/8 -- --
06:00 19.7 19.7 12.3 ESE 3.7 5.6 18.5 62 1022.7(0.3/3h) 30 1/8 0/12h
--
05:00 17.4 17.4 11.7 ESE 3.7 3.7 7.4 69 1022.9(-0.2/3h) 30 1/8 -- --
04:00 16.5 16.5 11.7 SE 3.7 3.7 13.0 73 1022.8(-0.2/3h) 30 1/8 -- --
03:00 17.8 17.8 11.3 SE 3.7 5.6 18.5 66 1022.5(-0.7/3h) 30 1/8 -- --
02:00 18.3 18.3 11.0 ESE 3.7 3.7 18.5 62 1022.6(-0.7/3h) 25 1/8 -- --
01:00 19.2 19.2 11.3 SE 3.7 5.6 7.4 60 1022.9(-0.7/3h) 30 1/8 -- --
00:00 20.2 20.2 10.9 E 5.6 9.3 16.7 55 1023.1(-0.3/3h) 30 1/8 0/6h
0/24h
--

1 Coordinated Universal Time. Actuellement il est 23:00 locale et 21:00 UTC.

2 Le vent souffle depuis la direction indiquée vers la direction oposée.

3 Les rafales max. sont disponible 40 min après l'heure du relevé.

4 Pour les stations d'altitude (plus de 600m) le géopotentiel du niveau le plus proche de la pression obligatoire est indiqué.

5 Les stations disposant d'un diffuseur peuvent indiquer "trace". Cela signifie que des précipitations ont touchés le sol mais que la quantité est inférieure à 0.1 mm.

Récapitulatif de la journée
Température [°C] Vent [km/h] Ensoleillement4 [h] Precipitations totale5 [mm] Pression [Hpa]
Min1 Max.2 Moy.3 Max. Min Max.
16.5 29.8 9 22.2 0 h 0 min 0 1018.8 1023.1

1 Température minimale relevée entre 18:00 UTC la veille et 18:00 UTC le jour donné.

2 Température maximale relevée entre 06:00 UTC le jour donné et 06:00 UTC le lendemain.

3 Vent moyen de la journée basé sur les relevés horaires.

4 Ensoleillement en heures relevé entre 06:00 UTC la veille et 06:00 UTC le jour donné.

5 Précipitations totales tombées entre 06:00 UTC la jour donné et 06:00 UTC le lendemain.

Graphiques horaires